sensor_id;sensor_type;location;lat;lon;timestamp;P1;durP1;ratioP1;P2;durP2;ratioP2
25497;SDS011;13406;53.380;7.226;2023-05-07T00:00:36;17.43;;;15.50;;
25497;SDS011;13406;53.380;7.226;2023-05-07T00:03:02;19.30;;;16.20;;
25497;SDS011;13406;53.380;7.226;2023-05-07T00:05:28;19.80;;;16.23;;
25497;SDS011;13406;53.380;7.226;2023-05-07T00:07:53;20.10;;;16.23;;
25497;SDS011;13406;53.380;7.226;2023-05-07T00:10:18;18.97;;;15.80;;
25497;SDS011;13406;53.380;7.226;2023-05-07T00:12:44;18.10;;;15.50;;
25497;SDS011;13406;53.380;7.226;2023-05-07T00:15:10;19.93;;;16.10;;
25497;SDS011;13406;53.380;7.226;2023-05-07T00:17:35;18.20;;;15.73;;
25497;SDS011;13406;53.380;7.226;2023-05-07T00:20:02;19.20;;;16.63;;
25497;SDS011;13406;53.380;7.226;2023-05-07T00:22:30;19.33;;;16.70;;
25497;SDS011;13406;53.380;7.226;2023-05-07T00:24:56;17.87;;;15.60;;
25497;SDS011;13406;53.380;7.226;2023-05-07T00:27:21;15.27;;;13.67;;
25497;SDS011;13406;53.380;7.226;2023-05-07T00:29:47;17.23;;;15.23;;
25497;SDS011;13406;53.380;7.226;2023-05-07T00:32:13;17.80;;;14.40;;
25497;SDS011;13406;53.380;7.226;2023-05-07T00:34:39;18.60;;;16.43;;
25497;SDS011;13406;53.380;7.226;2023-05-07T00:37:04;18.03;;;15.73;;
25497;SDS011;13406;53.380;7.226;2023-05-07T00:39:32;16.87;;;15.07;;
25497;SDS011;13406;53.380;7.226;2023-05-07T00:41:58;17.77;;;15.87;;
25497;SDS011;13406;53.380;7.226;2023-05-07T00:44:23;18.23;;;16.17;;
25497;SDS011;13406;53.380;7.226;2023-05-07T00:46:49;19.77;;;16.90;;
25497;SDS011;13406;53.380;7.226;2023-05-07T00:49:15;18.40;;;16.20;;
25497;SDS011;13406;53.380;7.226;2023-05-07T00:51:41;20.83;;;17.13;;
25497;SDS011;13406;53.380;7.226;2023-05-07T00:54:06;18.60;;;16.70;;
25497;SDS011;13406;53.380;7.226;2023-05-07T00:56:33;18.57;;;16.57;;
25497;SDS011;13406;53.380;7.226;2023-05-07T00:59:00;18.30;;;16.43;;
25497;SDS011;13406;53.380;7.226;2023-05-07T01:01:28;20.23;;;16.50;;
25497;SDS011;13406;53.380;7.226;2023-05-07T01:03:54;20.33;;;16.67;;
25497;SDS011;13406;53.380;7.226;2023-05-07T01:06:20;19.27;;;15.10;;
25497;SDS011;13406;53.380;7.226;2023-05-07T01:08:48;20.00;;;15.00;;
25497;SDS011;13406;53.380;7.226;2023-05-07T01:11:15;17.50;;;14.17;;
25497;SDS011;13406;53.380;7.226;2023-05-07T01:13:42;19.37;;;15.47;;
25497;SDS011;13406;53.380;7.226;2023-05-07T01:16:08;19.70;;;15.50;;
25497;SDS011;13406;53.380;7.226;2023-05-07T01:18:34;17.67;;;15.10;;
25497;SDS011;13406;53.380;7.226;2023-05-07T01:21:00;19.73;;;15.10;;
25497;SDS011;13406;53.380;7.226;2023-05-07T01:23:28;17.50;;;14.63;;
25497;SDS011;13406;53.380;7.226;2023-05-07T01:25:55;17.90;;;15.50;;
25497;SDS011;13406;53.380;7.226;2023-05-07T01:28:21;16.03;;;14.30;;
25497;SDS011;13406;53.380;7.226;2023-05-07T01:30:49;15.40;;;13.80;;
25497;SDS011;13406;53.380;7.226;2023-05-07T01:33:21;18.57;;;15.63;;
25497;SDS011;13406;53.380;7.226;2023-05-07T01:35:48;15.83;;;13.53;;
25497;SDS011;13406;53.380;7.226;2023-05-07T01:38:16;17.37;;;14.83;;
25497;SDS011;13406;53.380;7.226;2023-05-07T01:40:43;17.00;;;14.17;;
25497;SDS011;13406;53.380;7.226;2023-05-07T01:43:09;15.97;;;14.07;;
25497;SDS011;13406;53.380;7.226;2023-05-07T01:45:35;17.43;;;13.13;;
25497;SDS011;13406;53.380;7.226;2023-05-07T01:48:01;14.97;;;13.03;;
25497;SDS011;13406;53.380;7.226;2023-05-07T01:50:27;15.10;;;12.60;;
25497;SDS011;13406;53.380;7.226;2023-05-07T01:52:55;15.47;;;12.63;;
25497;SDS011;13406;53.380;7.226;2023-05-07T01:55:20;14.47;;;11.93;;
25497;SDS011;13406;53.380;7.226;2023-05-07T01:57:46;14.53;;;11.67;;
25497;SDS011;13406;53.380;7.226;2023-05-07T02:00:11;15.30;;;12.63;;
25497;SDS011;13406;53.380;7.226;2023-05-07T02:02:37;14.77;;;12.37;;
25497;SDS011;13406;53.380;7.226;2023-05-07T02:05:03;15.37;;;12.93;;
25497;SDS011;13406;53.380;7.226;2023-05-07T02:07:29;15.80;;;12.97;;
25497;SDS011;13406;53.380;7.226;2023-05-07T02:09:55;15.13;;;11.83;;
25497;SDS011;13406;53.380;7.226;2023-05-07T02:12:20;14.60;;;12.33;;
25497;SDS011;13406;53.380;7.226;2023-05-07T02:14:46;16.07;;;12.90;;
25497;SDS011;13406;53.380;7.226;2023-05-07T02:17:12;16.73;;;13.80;;
25497;SDS011;13406;53.380;7.226;2023-05-07T02:19:37;14.60;;;12.20;;
25497;SDS011;13406;53.380;7.226;2023-05-07T02:22:03;16.10;;;12.83;;
25497;SDS011;13406;53.380;7.226;2023-05-07T02:24:28;14.67;;;11.53;;
25497;SDS011;13406;53.380;7.226;2023-05-07T02:26:53;16.17;;;13.13;;
25497;SDS011;13406;53.380;7.226;2023-05-07T02:29:19;15.17;;;12.83;;
25497;SDS011;13406;53.380;7.226;2023-05-07T02:31:44;15.10;;;12.63;;
25497;SDS011;13406;53.380;7.226;2023-05-07T02:34:10;16.40;;;13.60;;
25497;SDS011;13406;53.380;7.226;2023-05-07T02:36:35;17.10;;;13.20;;
25497;SDS011;13406;53.380;7.226;2023-05-07T02:39:01;19.60;;;14.00;;
25497;SDS011;13406;53.380;7.226;2023-05-07T02:41:27;21.20;;;13.13;;
25497;SDS011;13406;53.380;7.226;2023-05-07T02:43:53;15.37;;;13.30;;
25497;SDS011;13406;53.380;7.226;2023-05-07T02:46:18;20.77;;;15.20;;
25497;SDS011;13406;53.380;7.226;2023-05-07T02:48:44;16.47;;;13.80;;
25497;SDS011;13406;53.380;7.226;2023-05-07T02:51:09;19.40;;;15.57;;
25497;SDS011;13406;53.380;7.226;2023-05-07T02:53:35;20.17;;;15.37;;
25497;SDS011;13406;53.380;7.226;2023-05-07T02:56:00;26.83;;;15.60;;
25497;SDS011;13406;53.380;7.226;2023-05-07T02:58:26;18.30;;;14.43;;
25497;SDS011;13406;53.380;7.226;2023-05-07T03:00:52;18.73;;;14.50;;
25497;SDS011;13406;53.380;7.226;2023-05-07T03:03:19;21.57;;;16.33;;
25497;SDS011;13406;53.380;7.226;2023-05-07T03:05:45;19.90;;;14.23;;
25497;SDS011;13406;53.380;7.226;2023-05-07T03:08:10;18.63;;;15.07;;
25497;SDS011;13406;53.380;7.226;2023-05-07T03:10:36;17.87;;;14.60;;
25497;SDS011;13406;53.380;7.226;2023-05-07T03:13:02;17.67;;;14.40;;
25497;SDS011;13406;53.380;7.226;2023-05-07T03:15:28;16.93;;;14.20;;
25497;SDS011;13406;53.380;7.226;2023-05-07T03:17:53;20.17;;;15.30;;
25497;SDS011;13406;53.380;7.226;2023-05-07T03:20:19;18.20;;;14.03;;
25497;SDS011;13406;53.380;7.226;2023-05-07T03:22:44;16.70;;;13.83;;
25497;SDS011;13406;53.380;7.226;2023-05-07T03:25:10;15.90;;;14.20;;
25497;SDS011;13406;53.380;7.226;2023-05-07T03:27:36;18.10;;;15.07;;
25497;SDS011;13406;53.380;7.226;2023-05-07T03:30:01;22.43;;;13.37;;
25497;SDS011;13406;53.380;7.226;2023-05-07T03:32:27;19.40;;;14.63;;
25497;SDS011;13406;53.380;7.226;2023-05-07T03:34:53;18.27;;;14.27;;
25497;SDS011;13406;53.380;7.226;2023-05-07T03:37:18;16.77;;;13.50;;
25497;SDS011;13406;53.380;7.226;2023-05-07T03:39:47;17.37;;;14.53;;
25497;SDS011;13406;53.380;7.226;2023-05-07T03:42:12;15.67;;;12.90;;
25497;SDS011;13406;53.380;7.226;2023-05-07T03:44:38;17.20;;;14.50;;
25497;SDS011;13406;53.380;7.226;2023-05-07T03:47:04;16.60;;;14.27;;
25497;SDS011;13406;53.380;7.226;2023-05-07T03:49:35;17.67;;;14.00;;
25497;SDS011;13406;53.380;7.226;2023-05-07T03:52:08;15.40;;;13.80;;
25497;SDS011;13406;53.380;7.226;2023-05-07T03:54:34;15.50;;;13.87;;
25497;SDS011;13406;53.380;7.226;2023-05-07T03:57:00;15.07;;;13.40;;
25497;SDS011;13406;53.380;7.226;2023-05-07T03:59:25;15.50;;;13.80;;
25497;SDS011;13406;53.380;7.226;2023-05-07T04:01:54;15.60;;;12.57;;
25497;SDS011;13406;53.380;7.226;2023-05-07T04:04:19;16.37;;;13.10;;
25497;SDS011;13406;53.380;7.226;2023-05-07T04:06:46;14.23;;;12.70;;
25497;SDS011;13406;53.380;7.226;2023-05-07T04:09:11;13.87;;;12.47;;
25497;SDS011;13406;53.380;7.226;2023-05-07T04:11:40;13.33;;;12.00;;
25497;SDS011;13406;53.380;7.226;2023-05-07T04:14:05;14.00;;;12.33;;
25497;SDS011;13406;53.380;7.226;2023-05-07T04:16:31;13.50;;;12.20;;
25497;SDS011;13406;53.380;7.226;2023-05-07T04:18:57;14.47;;;12.47;;
25497;SDS011;13406;53.380;7.226;2023-05-07T04:21:26;14.73;;;12.50;;
25497;SDS011;13406;53.380;7.226;2023-05-07T04:23:51;14.00;;;12.60;;
25497;SDS011;13406;53.380;7.226;2023-05-07T04:26:17;13.87;;;12.47;;
25497;SDS011;13406;53.380;7.226;2023-05-07T04:28:43;15.40;;;12.87;;
25497;SDS011;13406;53.380;7.226;2023-05-07T04:31:11;14.90;;;13.40;;
25497;SDS011;13406;53.380;7.226;2023-05-07T04:33:37;13.57;;;12.17;;
25497;SDS011;13406;53.380;7.226;2023-05-07T04:36:02;13.00;;;11.50;;
25497;SDS011;13406;53.380;7.226;2023-05-07T04:38:29;12.93;;;11.33;;
25497;SDS011;13406;53.380;7.226;2023-05-07T04:40:55;12.70;;;11.40;;
25497;SDS011;13406;53.380;7.226;2023-05-07T04:43:22;14.40;;;12.13;;
25497;SDS011;13406;53.380;7.226;2023-05-07T04:45:51;13.20;;;11.90;;
25497;SDS011;13406;53.380;7.226;2023-05-07T04:48:35;12.10;;;11.00;;
25497;SDS011;13406;53.380;7.226;2023-05-07T04:51:01;13.30;;;11.90;;
25497;SDS011;13406;53.380;7.226;2023-05-07T04:53:26;16.10;;;13.87;;
25497;SDS011;13406;53.380;7.226;2023-05-07T04:55:56;14.07;;;12.57;;
25497;SDS011;13406;53.380;7.226;2023-05-07T04:58:24;15.63;;;14.13;;
25497;SDS011;13406;53.380;7.226;2023-05-07T05:00:50;15.17;;;13.07;;
25497;SDS011;13406;53.380;7.226;2023-05-07T05:03:18;14.37;;;12.87;;
25497;SDS011;13406;53.380;7.226;2023-05-07T05:05:46;13.87;;;12.57;;
25497;SDS011;13406;53.380;7.226;2023-05-07T05:08:14;15.40;;;13.67;;
25497;SDS011;13406;53.380;7.226;2023-05-07T05:10:40;15.17;;;13.67;;
25497;SDS011;13406;53.380;7.226;2023-05-07T05:13:06;13.20;;;11.90;;
25497;SDS011;13406;53.380;7.226;2023-05-07T05:15:33;14.97;;;13.17;;
25497;SDS011;13406;53.380;7.226;2023-05-07T05:17:58;14.20;;;12.80;;
25497;SDS011;13406;53.380;7.226;2023-05-07T05:20:24;18.77;;;14.50;;
25497;SDS011;13406;53.380;7.226;2023-05-07T05:22:49;14.57;;;13.07;;
25497;SDS011;13406;53.380;7.226;2023-05-07T05:25:15;16.60;;;14.90;;
25497;SDS011;13406;53.380;7.226;2023-05-07T05:27:40;17.03;;;14.40;;
25497;SDS011;13406;53.380;7.226;2023-05-07T05:30:06;15.43;;;13.73;;
25497;SDS011;13406;53.380;7.226;2023-05-07T05:32:32;14.67;;;13.17;;
25497;SDS011;13406;53.380;7.226;2023-05-07T05:34:57;15.80;;;13.03;;
25497;SDS011;13406;53.380;7.226;2023-05-07T05:37:22;15.43;;;13.23;;
25497;SDS011;13406;53.380;7.226;2023-05-07T05:39:48;13.60;;;12.10;;
25497;SDS011;13406;53.380;7.226;2023-05-07T05:42:14;14.97;;;13.43;;
25497;SDS011;13406;53.380;7.226;2023-05-07T05:44:39;15.00;;;13.50;;
25497;SDS011;13406;53.380;7.226;2023-05-07T05:47:12;14.10;;;12.67;;
25497;SDS011;13406;53.380;7.226;2023-05-07T05:49:38;16.80;;;12.63;;
25497;SDS011;13406;53.380;7.226;2023-05-07T05:52:06;13.87;;;12.27;;
25497;SDS011;13406;53.380;7.226;2023-05-07T05:54:32;14.60;;;13.10;;
25497;SDS011;13406;53.380;7.226;2023-05-07T05:57:01;14.20;;;12.60;;
25497;SDS011;13406;53.380;7.226;2023-05-07T05:59:34;14.47;;;12.97;;
25497;SDS011;13406;53.380;7.226;2023-05-07T06:02:00;14.80;;;13.30;;
25497;SDS011;13406;53.380;7.226;2023-05-07T06:04:26;17.20;;;13.50;;
25497;SDS011;13406;53.380;7.226;2023-05-07T06:06:51;16.33;;;12.73;;
25497;SDS011;13406;53.380;7.226;2023-05-07T06:09:20;14.33;;;12.80;;
25497;SDS011;13406;53.380;7.226;2023-05-07T06:11:48;13.90;;;12.30;;
25497;SDS011;13406;53.380;7.226;2023-05-07T06:14:14;13.53;;;11.00;;
25497;SDS011;13406;53.380;7.226;2023-05-07T06:16:42;12.90;;;11.57;;
25497;SDS011;13406;53.380;7.226;2023-05-07T06:19:09;12.27;;;11.03;;
25497;SDS011;13406;53.380;7.226;2023-05-07T06:21:34;14.50;;;11.97;;
25497;SDS011;13406;53.380;7.226;2023-05-07T06:24:00;13.17;;;11.30;;
25497;SDS011;13406;53.380;7.226;2023-05-07T06:26:25;13.83;;;11.20;;
25497;SDS011;13406;53.380;7.226;2023-05-07T06:28:51;12.60;;;11.20;;
25497;SDS011;13406;53.380;7.226;2023-05-07T06:31:20;11.53;;;10.23;;
25497;SDS011;13406;53.380;7.226;2023-05-07T06:33:48;12.73;;;11.30;;
25497;SDS011;13406;53.380;7.226;2023-05-07T06:36:15;11.67;;;10.30;;
25497;SDS011;13406;53.380;7.226;2023-05-07T06:38:43;11.60;;;10.23;;
25497;SDS011;13406;53.380;7.226;2023-05-07T06:41:09;13.30;;;10.17;;
25497;SDS011;13406;53.380;7.226;2023-05-07T06:43:35;11.87;;;9.90;;
25497;SDS011;13406;53.380;7.226;2023-05-07T06:46:00;11.37;;;10.17;;
25497;SDS011;13406;53.380;7.226;2023-05-07T06:48:27;13.80;;;10.47;;
25497;SDS011;13406;53.380;7.226;2023-05-07T06:50:55;11.20;;;9.17;;
25497;SDS011;13406;53.380;7.226;2023-05-07T06:53:36;10.40;;;9.07;;
25497;SDS011;13406;53.380;7.226;2023-05-07T06:56:02;10.93;;;9.40;;
25497;SDS011;13406;53.380;7.226;2023-05-07T06:58:30;12.37;;;10.33;;
25497;SDS011;13406;53.380;7.226;2023-05-07T07:00:55;12.33;;;10.13;;
25497;SDS011;13406;53.380;7.226;2023-05-07T07:03:21;11.80;;;9.60;;
25497;SDS011;13406;53.380;7.226;2023-05-07T07:05:47;10.93;;;9.40;;
25497;SDS011;13406;53.380;7.226;2023-05-07T07:08:12;11.60;;;10.40;;
25497;SDS011;13406;53.380;7.226;2023-05-07T07:10:37;11.40;;;9.87;;
25497;SDS011;13406;53.380;7.226;2023-05-07T07:13:03;10.93;;;9.43;;
25497;SDS011;13406;53.380;7.226;2023-05-07T07:15:28;11.70;;;9.80;;
25497;SDS011;13406;53.380;7.226;2023-05-07T07:17:54;10.37;;;9.37;;
25497;SDS011;13406;53.380;7.226;2023-05-07T07:20:19;10.33;;;9.33;;
25497;SDS011;13406;53.380;7.226;2023-05-07T07:22:45;9.87;;;8.83;;
25497;SDS011;13406;53.380;7.226;2023-05-07T07:25:10;10.27;;;9.23;;
25497;SDS011;13406;53.380;7.226;2023-05-07T07:27:37;11.70;;;10.00;;
25497;SDS011;13406;53.380;7.226;2023-05-07T07:30:02;13.57;;;10.00;;
25497;SDS011;13406;53.380;7.226;2023-05-07T07:32:34;9.17;;;8.27;;
25497;SDS011;13406;53.380;7.226;2023-05-07T07:35:02;12.30;;;9.10;;
25497;SDS011;13406;53.380;7.226;2023-05-07T07:37:27;12.87;;;10.13;;
25497;SDS011;13406;53.380;7.226;2023-05-07T07:39:53;12.23;;;9.97;;
25497;SDS011;13406;53.380;7.226;2023-05-07T07:42:19;10.10;;;8.97;;
25497;SDS011;13406;53.380;7.226;2023-05-07T07:44:44;10.67;;;9.57;;
25497;SDS011;13406;53.380;7.226;2023-05-07T07:47:10;11.10;;;10.00;;
25497;SDS011;13406;53.380;7.226;2023-05-07T07:49:35;11.50;;;9.90;;
25497;SDS011;13406;53.380;7.226;2023-05-07T07:52:01;14.50;;;11.00;;
25497;SDS011;13406;53.380;7.226;2023-05-07T07:54:26;12.77;;;10.63;;
25497;SDS011;13406;53.380;7.226;2023-05-07T07:56:52;12.40;;;9.43;;
25497;SDS011;13406;53.380;7.226;2023-05-07T07:59:21;9.83;;;8.67;;
25497;SDS011;13406;53.380;7.226;2023-05-07T08:01:46;11.93;;;10.17;;
25497;SDS011;13406;53.380;7.226;2023-05-07T08:04:18;10.50;;;9.37;;
25497;SDS011;13406;53.380;7.226;2023-05-07T08:06:46;11.00;;;9.80;;
25497;SDS011;13406;53.380;7.226;2023-05-07T08:09:12;10.97;;;9.10;;
25497;SDS011;13406;53.380;7.226;2023-05-07T08:11:40;9.77;;;8.87;;
25497;SDS011;13406;53.380;7.226;2023-05-07T08:14:06;9.90;;;8.63;;
25497;SDS011;13406;53.380;7.226;2023-05-07T08:16:31;10.90;;;9.80;;
25497;SDS011;13406;53.380;7.226;2023-05-07T08:18:57;11.60;;;9.33;;
25497;SDS011;13406;53.380;7.226;2023-05-07T08:21:23;10.60;;;9.60;;
25497;SDS011;13406;53.380;7.226;2023-05-07T08:23:48;12.00;;;9.20;;
25497;SDS011;13406;53.380;7.226;2023-05-07T08:26:20;10.00;;;9.00;;
25497;SDS011;13406;53.380;7.226;2023-05-07T08:28:49;10.27;;;9.17;;
25497;SDS011;13406;53.380;7.226;2023-05-07T08:31:14;12.57;;;9.40;;
25497;SDS011;13406;53.380;7.226;2023-05-07T08:33:43;10.90;;;8.93;;
25497;SDS011;13406;53.380;7.226;2023-05-07T08:36:11;11.33;;;8.53;;
25497;SDS011;13406;53.380;7.226;2023-05-07T08:38:37;11.10;;;9.07;;
25497;SDS011;13406;53.380;7.226;2023-05-07T08:41:03;9.93;;;8.93;;
25497;SDS011;13406;53.380;7.226;2023-05-07T08:43:28;10.20;;;8.63;;
25497;SDS011;13406;53.380;7.226;2023-05-07T08:45:58;10.27;;;8.60;;
25497;SDS011;13406;53.380;7.226;2023-05-07T08:48:29;10.10;;;9.00;;
25497;SDS011;13406;53.380;7.226;2023-05-07T08:50:58;8.93;;;7.97;;
25497;SDS011;13406;53.380;7.226;2023-05-07T08:53:28;9.37;;;8.47;;
25497;SDS011;13406;53.380;7.226;2023-05-07T08:55:57;9.17;;;8.27;;
25497;SDS011;13406;53.380;7.226;2023-05-07T08:58:23;10.33;;;9.23;;
25497;SDS011;13406;53.380;7.226;2023-05-07T09:00:49;10.27;;;9.20;;
25497;SDS011;13406;53.380;7.226;2023-05-07T09:03:16;9.70;;;8.70;;
25497;SDS011;13406;53.380;7.226;2023-05-07T09:05:42;9.00;;;8.10;;
25497;SDS011;13406;53.380;7.226;2023-05-07T09:08:09;9.80;;;8.80;;
25497;SDS011;13406;53.380;7.226;2023-05-07T09:10:34;9.10;;;8.20;;
25497;SDS011;13406;53.380;7.226;2023-05-07T09:13:00;9.87;;;8.60;;
25497;SDS011;13406;53.380;7.226;2023-05-07T09:15:26;9.63;;;8.63;;
25497;SDS011;13406;53.380;7.226;2023-05-07T09:17:53;8.43;;;7.63;;
25497;SDS011;13406;53.380;7.226;2023-05-07T09:20:18;10.20;;;8.03;;
25497;SDS011;13406;53.380;7.226;2023-05-07T09:22:44;10.60;;;8.70;;
25497;SDS011;13406;53.380;7.226;2023-05-07T09:25:10;9.60;;;8.33;;
25497;SDS011;13406;53.380;7.226;2023-05-07T09:27:35;9.77;;;8.77;;
25497;SDS011;13406;53.380;7.226;2023-05-07T09:30:05;9.23;;;8.00;;
25497;SDS011;13406;53.380;7.226;2023-05-07T09:32:33;10.77;;;9.77;;
25497;SDS011;13406;53.380;7.226;2023-05-07T09:35:00;10.17;;;8.97;;
25497;SDS011;13406;53.380;7.226;2023-05-07T09:37:25;8.47;;;7.67;;
25497;SDS011;13406;53.380;7.226;2023-05-07T09:39:51;9.17;;;8.03;;
25497;SDS011;13406;53.380;7.226;2023-05-07T09:42:22;10.50;;;9.40;;
25497;SDS011;13406;53.380;7.226;2023-05-07T09:44:52;9.73;;;8.73;;
25497;SDS011;13406;53.380;7.226;2023-05-07T09:47:21;9.73;;;8.37;;
25497;SDS011;13406;53.380;7.226;2023-05-07T09:49:49;8.53;;;7.73;;
25497;SDS011;13406;53.380;7.226;2023-05-07T09:52:15;9.60;;;8.60;;
25497;SDS011;13406;53.380;7.226;2023-05-07T09:54:41;10.17;;;9.17;;
25497;SDS011;13406;53.380;7.226;2023-05-07T09:57:09;9.40;;;8.40;;
25497;SDS011;13406;53.380;7.226;2023-05-07T09:59:37;7.80;;;7.10;;
25497;SDS011;13406;53.380;7.226;2023-05-07T10:02:03;8.97;;;8.10;;
25497;SDS011;13406;53.380;7.226;2023-05-07T10:04:30;7.53;;;6.83;;
25497;SDS011;13406;53.380;7.226;2023-05-07T10:06:56;8.90;;;7.60;;
25497;SDS011;13406;53.380;7.226;2023-05-07T10:09:23;8.40;;;6.93;;
25497;SDS011;13406;53.380;7.226;2023-05-07T10:11:51;6.77;;;6.10;;
25497;SDS011;13406;53.380;7.226;2023-05-07T10:14:18;7.93;;;7.23;;
25497;SDS011;13406;53.380;7.226;2023-05-07T10:16:45;7.70;;;6.90;;
25497;SDS011;13406;53.380;7.226;2023-05-07T10:19:12;8.53;;;7.63;;
25497;SDS011;13406;53.380;7.226;2023-05-07T10:21:39;7.50;;;6.80;;
25497;SDS011;13406;53.380;7.226;2023-05-07T10:24:19;8.10;;;7.33;;
25497;SDS011;13406;53.380;7.226;2023-05-07T10:26:48;8.60;;;7.30;;
25497;SDS011;13406;53.380;7.226;2023-05-07T10:35:14;9.77;;;8.27;;
25497;SDS011;13406;53.380;7.226;2023-05-07T10:37:54;7.57;;;6.83;;
25497;SDS011;13406;53.380;7.226;2023-05-07T10:40:20;7.57;;;6.83;;
25497;SDS011;13406;53.380;7.226;2023-05-07T10:42:55;9.10;;;7.43;;
25497;SDS011;13406;53.380;7.226;2023-05-07T10:45:25;8.27;;;7.47;;
25497;SDS011;13406;53.380;7.226;2023-05-07T10:50:44;8.47;;;7.67;;
25497;SDS011;13406;53.380;7.226;2023-05-07T10:55:41;6.23;;;5.73;;
25497;SDS011;13406;53.380;7.226;2023-05-07T11:00:55;9.03;;;7.97;;
25497;SDS011;13406;53.380;7.226;2023-05-07T11:03:25;8.50;;;7.00;;
25497;SDS011;13406;53.380;7.226;2023-05-07T11:11:19;11.50;;;10.50;;
25497;SDS011;13406;53.380;7.226;2023-05-07T11:13:49;9.60;;;8.70;;
25497;SDS011;13406;53.380;7.226;2023-05-07T11:16:22;9.00;;;8.20;;
25497;SDS011;13406;53.380;7.226;2023-05-07T11:18:52;9.13;;;8.27;;
25497;SDS011;13406;53.380;7.226;2023-05-07T11:23:57;8.17;;;7.37;;
25497;SDS011;13406;53.380;7.226;2023-05-07T11:26:23;7.30;;;6.60;;
25497;SDS011;13406;53.380;7.226;2023-05-07T11:28:49;7.47;;;6.73;;
25497;SDS011;13406;53.380;7.226;2023-05-07T11:31:15;8.70;;;7.87;;
25497;SDS011;13406;53.380;7.226;2023-05-07T11:33:48;7.83;;;7.13;;
25497;SDS011;13406;53.380;7.226;2023-05-07T11:36:13;8.03;;;7.23;;
25497;SDS011;13406;53.380;7.226;2023-05-07T11:38:39;8.90;;;8.00;;
25497;SDS011;13406;53.380;7.226;2023-05-07T11:41:05;8.10;;;7.30;;
25497;SDS011;13406;53.380;7.226;2023-05-07T11:43:32;7.97;;;7.27;;
25497;SDS011;13406;53.380;7.226;2023-05-07T11:48:47;7.30;;;6.60;;
25497;SDS011;13406;53.380;7.226;2023-05-07T11:51:13;7.60;;;6.90;;
25497;SDS011;13406;53.380;7.226;2023-05-07T11:53:44;8.13;;;7.20;;
25497;SDS011;13406;53.380;7.226;2023-05-07T11:56:11;8.07;;;7.27;;
25497;SDS011;13406;53.380;7.226;2023-05-07T11:58:38;8.47;;;7.57;;
25497;SDS011;13406;53.380;7.226;2023-05-07T12:01:06;7.10;;;6.40;;
25497;SDS011;13406;53.380;7.226;2023-05-07T12:03:33;8.57;;;7.73;;
25497;SDS011;13406;53.380;7.226;2023-05-07T12:05:59;7.10;;;6.50;;
25497;SDS011;13406;53.380;7.226;2023-05-07T12:08:25;7.43;;;6.73;;
25497;SDS011;13406;53.380;7.226;2023-05-07T12:10:50;8.07;;;7.37;;
25497;SDS011;13406;53.380;7.226;2023-05-07T12:15:51;6.63;;;5.93;;
25497;SDS011;13406;53.380;7.226;2023-05-07T12:18:18;6.87;;;6.27;;
25497;SDS011;13406;53.380;7.226;2023-05-07T12:20:45;5.57;;;5.07;;
25497;SDS011;13406;53.380;7.226;2023-05-07T12:23:10;6.43;;;5.83;;
25497;SDS011;13406;53.380;7.226;2023-05-07T12:25:37;7.17;;;6.57;;
25497;SDS011;13406;53.380;7.226;2023-05-07T12:28:03;7.27;;;6.57;;
25497;SDS011;13406;53.380;7.226;2023-05-07T12:30:39;7.37;;;6.67;;
25497;SDS011;13406;53.380;7.226;2023-05-07T12:33:05;6.90;;;6.30;;
25497;SDS011;13406;53.380;7.226;2023-05-07T12:35:31;7.23;;;6.53;;
25497;SDS011;13406;53.380;7.226;2023-05-07T12:38:01;6.93;;;6.33;;
25497;SDS011;13406;53.380;7.226;2023-05-07T12:40:39;7.40;;;6.70;;
25497;SDS011;13406;53.380;7.226;2023-05-07T12:43:25;6.70;;;6.07;;
25497;SDS011;13406;53.380;7.226;2023-05-07T12:45:56;8.07;;;7.23;;
25497;SDS011;13406;53.380;7.226;2023-05-07T12:48:25;7.47;;;6.77;;
25497;SDS011;13406;53.380;7.226;2023-05-07T12:50:55;6.30;;;5.70;;
25497;SDS011;13406;53.380;7.226;2023-05-07T12:53:23;6.87;;;6.17;;
25497;SDS011;13406;53.380;7.226;2023-05-07T12:55:51;7.43;;;6.73;;
25497;SDS011;13406;53.380;7.226;2023-05-07T12:58:27;6.83;;;6.23;;
25497;SDS011;13406;53.380;7.226;2023-05-07T13:00:55;6.80;;;6.10;;
25497;SDS011;13406;53.380;7.226;2023-05-07T13:06:02;6.83;;;6.23;;
25497;SDS011;13406;53.380;7.226;2023-05-07T13:08:30;6.63;;;6.03;;
25497;SDS011;13406;53.380;7.226;2023-05-07T13:10:58;6.50;;;5.90;;
25497;SDS011;13406;53.380;7.226;2023-05-07T13:13:28;8.70;;;6.30;;
25497;SDS011;13406;53.380;7.226;2023-05-07T13:15:55;6.77;;;6.07;;
25497;SDS011;13406;53.380;7.226;2023-05-07T13:18:20;6.30;;;5.70;;
25497;SDS011;13406;53.380;7.226;2023-05-07T13:20:45;7.73;;;6.17;;
25497;SDS011;13406;53.380;7.226;2023-05-07T13:23:11;5.83;;;5.33;;
25497;SDS011;13406;53.380;7.226;2023-05-07T13:25:36;7.17;;;6.47;;
25497;SDS011;13406;53.380;7.226;2023-05-07T13:28:02;6.10;;;5.60;;
25497;SDS011;13406;53.380;7.226;2023-05-07T13:30:28;6.27;;;5.67;;
25497;SDS011;13406;53.380;7.226;2023-05-07T13:32:55;7.17;;;5.83;;
25497;SDS011;13406;53.380;7.226;2023-05-07T13:35:20;6.50;;;6.00;;
25497;SDS011;13406;53.380;7.226;2023-05-07T13:37:46;6.77;;;6.17;;
25497;SDS011;13406;53.380;7.226;2023-05-07T13:40:13;5.70;;;5.20;;
25497;SDS011;13406;53.380;7.226;2023-05-07T13:42:38;6.67;;;5.97;;
25497;SDS011;13406;53.380;7.226;2023-05-07T13:45:04;6.73;;;6.10;;
25497;SDS011;13406;53.380;7.226;2023-05-07T13:47:30;6.53;;;5.90;;
25497;SDS011;13406;53.380;7.226;2023-05-07T13:49:55;6.40;;;5.80;;
25497;SDS011;13406;53.380;7.226;2023-05-07T13:52:21;5.80;;;5.23;;
25497;SDS011;13406;53.380;7.226;2023-05-07T13:54:46;6.23;;;5.70;;
25497;SDS011;13406;53.380;7.226;2023-05-07T13:57:12;5.87;;;5.37;;
25497;SDS011;13406;53.380;7.226;2023-05-07T13:59:37;6.33;;;5.53;;
25497;SDS011;13406;53.380;7.226;2023-05-07T14:02:03;5.57;;;5.07;;
25497;SDS011;13406;53.380;7.226;2023-05-07T14:04:28;7.73;;;7.03;;
25497;SDS011;13406;53.380;7.226;2023-05-07T14:06:55;8.93;;;7.00;;
25497;SDS011;13406;53.380;7.226;2023-05-07T14:09:20;5.83;;;5.30;;
25497;SDS011;13406;53.380;7.226;2023-05-07T14:11:46;6.23;;;5.53;;
25497;SDS011;13406;53.380;7.226;2023-05-07T14:14:12;6.87;;;6.27;;
25497;SDS011;13406;53.380;7.226;2023-05-07T14:16:38;5.77;;;5.27;;
25497;SDS011;13406;53.380;7.226;2023-05-07T14:19:03;7.20;;;5.47;;
25497;SDS011;13406;53.380;7.226;2023-05-07T14:21:29;6.37;;;5.77;;
25497;SDS011;13406;53.380;7.226;2023-05-07T14:23:55;7.50;;;6.20;;
25497;SDS011;13406;53.380;7.226;2023-05-07T14:26:21;9.20;;;6.37;;
25497;SDS011;13406;53.380;7.226;2023-05-07T14:28:48;6.67;;;6.07;;
25497;SDS011;13406;53.380;7.226;2023-05-07T14:31:14;7.03;;;6.00;;
25497;SDS011;13406;53.380;7.226;2023-05-07T14:33:40;8.70;;;6.00;;
25497;SDS011;13406;53.380;7.226;2023-05-07T14:36:06;6.23;;;5.63;;
25497;SDS011;13406;53.380;7.226;2023-05-07T14:38:31;6.23;;;5.63;;
25497;SDS011;13406;53.380;7.226;2023-05-07T14:40:58;6.90;;;6.13;;
25497;SDS011;13406;53.380;7.226;2023-05-07T14:43:23;5.77;;;5.17;;
25497;SDS011;13406;53.380;7.226;2023-05-07T14:45:49;5.97;;;5.37;;
25497;SDS011;13406;53.380;7.226;2023-05-07T14:48:14;7.60;;;6.90;;
25497;SDS011;13406;53.380;7.226;2023-05-07T14:50:43;6.33;;;5.73;;
25497;SDS011;13406;53.380;7.226;2023-05-07T14:53:08;8.43;;;5.63;;
25497;SDS011;13406;53.380;7.226;2023-05-07T14:55:34;8.80;;;6.37;;
25497;SDS011;13406;53.380;7.226;2023-05-07T14:58:00;7.50;;;5.80;;
25497;SDS011;13406;53.380;7.226;2023-05-07T15:00:26;5.60;;;5.10;;